createdAt,value
2022-11-29T00:01:44.619Z,74.90
2022-11-29T00:04:13.877Z,74.70
2022-11-29T00:06:42.968Z,74.60
2022-11-29T00:09:13.671Z,74.70
2022-11-29T00:12:01.349Z,74.80
2022-11-29T00:14:30.796Z,75.40
2022-11-29T00:17:04.481Z,75.00
2022-11-29T00:19:35.285Z,74.90
2022-11-29T00:22:04.600Z,74.80
2022-11-29T00:24:34.609Z,74.70
2022-11-29T00:27:04.046Z,74.80
2022-11-29T00:29:34.798Z,74.70
2022-11-29T00:32:04.148Z,74.80
2022-11-29T00:34:33.344Z,74.90
2022-11-29T00:37:02.524Z,75.00
2022-11-29T00:39:31.824Z,75.00
2022-11-29T00:42:00.917Z,75.10
2022-11-29T00:44:30.108Z,74.90
2022-11-29T00:46:59.168Z,75.00
2022-11-29T00:49:28.270Z,74.90
2022-11-29T00:51:57.353Z,74.90
2022-11-29T00:54:26.489Z,74.90
2022-11-29T00:56:55.622Z,74.90
2022-11-29T00:59:24.781Z,74.80
2022-11-29T01:01:53.906Z,74.80
2022-11-29T01:04:22.998Z,74.80
2022-11-29T01:06:53.346Z,74.80
2022-11-29T01:09:22.483Z,75.00
2022-11-29T01:11:51.616Z,74.90
2022-11-29T01:14:20.752Z,74.90
2022-11-29T01:16:50.045Z,74.90
2022-11-29T01:19:19.212Z,74.80
2022-11-29T01:21:48.299Z,74.80
2022-11-29T01:24:17.397Z,74.90
2022-11-29T01:26:46.492Z,74.90
2022-11-29T01:29:15.693Z,74.70
2022-11-29T01:31:44.865Z,74.70
2022-11-29T01:34:13.945Z,74.80
2022-11-29T01:36:43.010Z,74.80
2022-11-29T01:39:12.206Z,74.80
2022-11-29T01:41:41.361Z,74.80
2022-11-29T01:44:13.152Z,74.90
2022-11-29T01:46:48.287Z,75.00
2022-11-29T01:49:20.172Z,75.00
2022-11-29T01:52:09.540Z,75.00
2022-11-29T01:54:42.389Z,75.10
2022-11-29T01:57:13.036Z,75.00
2022-11-29T01:59:45.864Z,75.00
2022-11-29T02:02:23.709Z,75.00
2022-11-29T02:04:52.993Z,75.00
2022-11-29T02:07:22.120Z,75.10
2022-11-29T02:09:51.220Z,75.00
2022-11-29T02:12:59.534Z,75.00
2022-11-29T02:15:42.289Z,75.10
2022-11-29T02:18:15.540Z,75.10
2022-11-29T02:21:27.788Z,75.10
2022-11-29T02:24:14.263Z,75.10
2022-11-29T02:27:12.212Z,75.40
2022-11-29T02:30:09.109Z,75.60
2022-11-29T02:32:41.227Z,75.70
2022-11-29T02:35:44.122Z,75.70
2022-11-29T02:38:28.089Z,75.60
2022-11-29T02:41:00.178Z,75.50
2022-11-29T02:44:11.053Z,75.50
2022-11-29T02:47:21.346Z,75.40
2022-11-29T02:50:27.034Z,75.40
2022-11-29T02:53:08.486Z,76.00
2022-11-29T02:55:44.867Z,75.40
2022-11-29T02:58:31.092Z,75.50
2022-11-29T03:01:13.552Z,75.50
2022-11-29T03:04:02.573Z,75.40
2022-11-29T03:06:37.783Z,75.50
2022-11-29T03:09:28.901Z,75.60
2022-11-29T03:12:05.433Z,75.60
2022-11-29T03:14:49.467Z,75.70
2022-11-29T03:17:39.673Z,75.70
2022-11-29T03:20:21.008Z,75.70
2022-11-29T03:23:14.417Z,75.70
2022-11-29T03:25:55.085Z,75.80
2022-11-29T03:28:46.111Z,75.80
2022-11-29T03:31:21.882Z,75.70
2022-11-29T03:34:03.060Z,75.60
2022-11-29T03:37:00.179Z,75.70
2022-11-29T03:39:44.312Z,75.80
2022-11-29T03:42:26.267Z,75.70
2022-11-29T03:45:14.051Z,75.90
2022-11-29T03:48:00.285Z,75.90
2022-11-29T03:50:36.800Z,75.90
2022-11-29T03:53:23.768Z,75.90
2022-11-29T03:55:59.933Z,75.90
2022-11-29T03:59:07.361Z,75.80
2022-11-29T04:01:55.784Z,75.80
2022-11-29T04:04:46.793Z,76.00
2022-11-29T04:07:31.224Z,75.90
2022-11-29T04:10:27.643Z,75.90
2022-11-29T04:13:24.679Z,75.90
2022-11-29T04:16:35.276Z,76.00
2022-11-29T04:19:38.904Z,75.90
2022-11-29T04:22:10.912Z,75.90
2022-11-29T04:25:07.562Z,75.90
2022-11-29T04:27:36.657Z,76.00
2022-11-29T04:30:48.657Z,75.90
2022-11-29T04:33:32.853Z,76.00
2022-11-29T04:36:15.376Z,75.90
2022-11-29T04:38:57.263Z,75.90
2022-11-29T04:41:41.578Z,75.80
2022-11-29T04:44:57.014Z,75.80
2022-11-29T04:47:47.033Z,75.80
2022-11-29T04:50:33.249Z,75.80
2022-11-29T04:53:22.687Z,75.70
2022-11-29T04:56:09.320Z,75.70
2022-11-29T04:58:43.196Z,75.90
2022-11-29T05:01:37.408Z,75.90
2022-11-29T05:04:27.596Z,75.80
2022-11-29T05:07:24.725Z,75.80
2022-11-29T05:10:47.924Z,75.90
2022-11-29T05:13:39.021Z,75.80
2022-11-29T05:16:32.920Z,75.80
2022-11-29T05:19:20.601Z,75.90
2022-11-29T05:22:00.271Z,75.80
2022-11-29T05:24:42.808Z,75.80
2022-11-29T05:27:15.014Z,75.80
2022-11-29T05:30:07.534Z,75.80
2022-11-29T05:32:51.845Z,75.90
2022-11-29T05:35:26.596Z,75.80
2022-11-29T05:38:16.340Z,75.80
2022-11-29T05:41:03.277Z,75.80
2022-11-29T05:44:10.113Z,75.90
2022-11-29T05:47:02.178Z,75.90
2022-11-29T05:49:35.464Z,75.80
2022-11-29T05:52:42.017Z,75.90
2022-11-29T05:55:14.152Z,76.70
2022-11-29T05:58:10.101Z,76.20
2022-11-29T06:00:54.536Z,76.10
2022-11-29T06:03:58.571Z,76.20
2022-11-29T06:07:44.701Z,76.20
2022-11-29T06:10:17.806Z,76.40
2022-11-29T06:13:10.847Z,76.40
2022-11-29T06:16:18.569Z,76.50
2022-11-29T06:19:06.277Z,76.40
2022-11-29T06:22:12.193Z,76.30
2022-11-29T06:24:50.559Z,76.50
2022-11-29T06:27:57.793Z,76.40
2022-11-29T06:30:36.485Z,76.40
2022-11-29T06:33:18.061Z,76.40
2022-11-29T06:35:53.411Z,76.60
2022-11-29T06:38:26.377Z,76.70
2022-11-29T06:41:01.892Z,76.80
2022-11-29T06:43:32.105Z,76.70
2022-11-29T06:46:11.298Z,76.80
2022-11-29T06:48:49.752Z,76.90
2022-11-29T06:51:47.347Z,76.70
2022-11-29T06:54:26.216Z,76.40
2022-11-29T06:57:00.092Z,76.20
2022-11-29T06:59:43.337Z,76.20
2022-11-29T07:02:37.075Z,76.20
2022-11-29T07:05:44.545Z,76.00
2022-11-29T07:08:19.993Z,76.10
2022-11-29T07:10:53.171Z,76.40
2022-11-29T07:13:23.247Z,76.70
2022-11-29T07:16:21.113Z,76.80
2022-11-29T07:19:17.332Z,76.90
2022-11-29T07:22:18.409Z,76.90
2022-11-29T07:24:57.861Z,76.90
2022-11-29T07:27:37.452Z,77.10
2022-11-29T07:30:13.482Z,77.10
2022-11-29T07:33:00.439Z,77.10
2022-11-29T07:35:38.670Z,77.00
2022-11-29T07:38:16.810Z,76.70
2022-11-29T07:40:51.297Z,76.70
2022-11-29T07:43:20.442Z,76.70
2022-11-29T07:45:51.014Z,75.90
2022-11-29T07:48:20.162Z,75.20
2022-11-29T07:50:49.518Z,75.30
2022-11-29T07:53:20.809Z,75.20
2022-11-29T07:55:50.996Z,74.70
2022-11-29T07:58:20.704Z,74.40
2022-11-29T08:00:49.945Z,73.40
2022-11-29T08:03:19.140Z,72.80
2022-11-29T08:05:48.448Z,72.90
2022-11-29T08:08:17.581Z,73.20
2022-11-29T08:10:46.838Z,73.10
2022-11-29T08:13:16.029Z,72.90
2022-11-29T08:15:46.321Z,72.50
2022-11-29T08:18:15.891Z,73.00
2022-11-29T08:20:46.328Z,73.40
2022-11-29T08:23:15.542Z,73.60
2022-11-29T08:25:45.918Z,73.50
2022-11-29T08:28:15.044Z,73.30
2022-11-29T08:30:44.175Z,73.20
2022-11-29T08:33:13.279Z,73.10
2022-11-29T08:35:42.408Z,72.90
2022-11-29T08:38:11.476Z,72.90
2022-11-29T08:40:40.672Z,72.70
2022-11-29T08:43:09.768Z,72.50
2022-11-29T08:45:38.895Z,72.20
2022-11-29T08:48:07.992Z,72.10
2022-11-29T08:50:37.175Z,72.10
2022-11-29T08:53:24.842Z,71.90
2022-11-29T08:55:53.995Z,72.00
2022-11-29T08:58:23.146Z,71.80
2022-11-29T09:00:53.134Z,72.00
2022-11-29T09:03:41.863Z,72.00
2022-11-29T09:06:15.638Z,71.90
2022-11-29T09:08:45.118Z,71.70
2022-11-29T09:11:21.048Z,72.10
2022-11-29T09:13:54.444Z,71.40
2022-11-29T09:16:25.839Z,71.30
2022-11-29T09:18:56.058Z,71.20
2022-11-29T09:21:27.444Z,71.10
2022-11-29T09:23:59.712Z,70.90
2022-11-29T09:26:31.665Z,70.70
2022-11-29T09:29:02.409Z,70.50
2022-11-29T09:31:32.508Z,70.40
2022-11-29T09:34:01.740Z,70.20
2022-11-29T09:36:31.458Z,70.20
2022-11-29T09:39:02.948Z,70.10
2022-11-29T09:41:56.879Z,70.00
2022-11-29T09:44:31.896Z,69.90
2022-11-29T09:47:18.867Z,69.70
2022-11-29T09:50:18.804Z,69.60
2022-11-29T09:52:50.537Z,69.40
2022-11-29T09:55:22.342Z,69.20
2022-11-29T09:57:53.913Z,69.00
2022-11-29T10:00:23.329Z,68.80
2022-11-29T10:03:02.033Z,68.90
2022-11-29T10:05:54.993Z,68.70
2022-11-29T10:08:32.273Z,68.50
2022-11-29T10:11:29.873Z,68.40
2022-11-29T10:14:07.100Z,68.10
2022-11-29T10:16:45.665Z,68.00
2022-11-29T10:19:24.350Z,67.80
2022-11-29T10:22:05.051Z,67.80
2022-11-29T10:24:34.538Z,67.60
2022-11-29T10:27:14.458Z,67.30
2022-11-29T10:29:43.647Z,67.30
2022-11-29T10:32:14.255Z,67.20
2022-11-29T10:34:43.978Z,67.00
2022-11-29T10:37:19.870Z,67.00
2022-11-29T10:40:04.196Z,66.90
2022-11-29T10:42:51.954Z,66.80
2022-11-29T10:45:27.324Z,66.90
2022-11-29T10:48:01.997Z,66.90
2022-11-29T10:50:34.538Z,67.00
2022-11-29T10:53:10.824Z,67.00
2022-11-29T10:55:48.359Z,66.90
2022-11-29T10:58:28.283Z,66.90
2022-11-29T11:01:02.436Z,66.80
2022-11-29T11:03:53.419Z,66.60
2022-11-29T11:06:43.275Z,66.50
2022-11-29T11:09:18.523Z,66.10
2022-11-29T11:11:57.223Z,65.90
2022-11-29T11:14:33.169Z,65.60
2022-11-29T11:17:21.177Z,65.40
2022-11-29T11:19:54.856Z,65.10
2022-11-29T11:22:25.737Z,65.00
2022-11-29T11:25:44.121Z,64.80
2022-11-29T11:28:28.864Z,64.40
2022-11-29T11:31:08.448Z,64.20
2022-11-29T11:33:39.650Z,64.10
2022-11-29T11:36:15.043Z,64.00
2022-11-29T11:38:53.911Z,63.80
2022-11-29T11:41:47.320Z,63.70
2022-11-29T11:44:46.887Z,63.50
2022-11-29T11:47:20.718Z,63.40
2022-11-29T11:50:04.785Z,63.20
2022-11-29T11:52:50.428Z,63.20
2022-11-29T11:55:29.172Z,63.20
2022-11-29T11:58:12.944Z,63.20
2022-11-29T12:01:06.219Z,63.20
2022-11-29T12:03:43.913Z,63.20
2022-11-29T12:06:37.649Z,63.10
2022-11-29T12:09:10.036Z,62.50
2022-11-29T12:11:56.119Z,62.20
2022-11-29T12:14:47.338Z,62.00
2022-11-29T12:17:49.102Z,61.70
2022-11-29T12:20:21.354Z,61.50
2022-11-29T12:22:53.425Z,61.60
2022-11-29T12:25:29.511Z,61.70
2022-11-29T12:27:58.726Z,61.80
2022-11-29T12:30:28.280Z,61.80
2022-11-29T12:33:12.561Z,61.70
2022-11-29T12:35:56.142Z,61.90
2022-11-29T12:38:58.877Z,62.00
2022-11-29T12:41:53.832Z,62.00
2022-11-29T12:44:47.503Z,61.10
2022-11-29T12:47:36.113Z,61.10
2022-11-29T12:50:36.484Z,61.40
2022-11-29T12:53:21.220Z,61.90
2022-11-29T12:56:16.168Z,62.20
2022-11-29T12:59:09.940Z,62.30
2022-11-29T13:02:00.495Z,62.40
2022-11-29T13:04:39.648Z,62.50
2022-11-29T13:07:42.394Z,62.50
2022-11-29T13:10:30.226Z,62.50
2022-11-29T13:13:16.049Z,62.60
2022-11-29T13:15:56.019Z,62.60
2022-11-29T13:18:50.850Z,62.50
2022-11-29T13:21:30.616Z,62.40
2022-11-29T13:24:09.933Z,62.40
2022-11-29T13:26:40.998Z,62.30
2022-11-29T13:29:16.430Z,62.30
2022-11-29T13:31:47.273Z,62.30
2022-11-29T13:34:30.521Z,62.30
2022-11-29T13:37:30.022Z,62.50
2022-11-29T13:40:23.734Z,62.50
2022-11-29T13:43:09.512Z,62.70
2022-11-29T13:45:41.415Z,62.80
2022-11-29T13:48:32.878Z,62.90
2022-11-29T13:51:22.205Z,62.90
2022-11-29T13:53:52.269Z,63.20
2022-11-29T13:56:36.163Z,63.30
2022-11-29T13:59:08.353Z,63.40
2022-11-29T14:01:50.698Z,63.40
2022-11-29T14:04:30.835Z,63.60
2022-11-29T14:07:13.345Z,63.60
2022-11-29T14:09:48.687Z,63.70
2022-11-29T14:12:39.571Z,63.80
2022-11-29T14:15:28.443Z,63.80
2022-11-29T14:17:59.724Z,64.20
2022-11-29T14:20:28.795Z,64.30
2022-11-29T14:23:07.474Z,64.50
2022-11-29T14:26:02.380Z,64.60
2022-11-29T14:28:34.557Z,64.70
2022-11-29T14:31:05.688Z,64.80
2022-11-29T14:33:46.851Z,65.10
2022-11-29T14:36:18.846Z,65.50
2022-11-29T14:38:58.922Z,65.80
2022-11-29T14:41:41.538Z,66.00
2022-11-29T14:44:28.331Z,66.30
2022-11-29T14:47:32.939Z,66.30
2022-11-29T14:50:07.499Z,66.80
2022-11-29T14:52:50.731Z,67.00
2022-11-29T14:55:19.848Z,67.10
2022-11-29T14:57:54.798Z,67.30
2022-11-29T15:00:23.876Z,67.50
2022-11-29T15:03:20.600Z,67.70
2022-11-29T15:05:59.513Z,67.60
2022-11-29T15:08:47.142Z,67.80
2022-11-29T15:11:39.774Z,68.00
2022-11-29T15:14:47.535Z,68.20
2022-11-29T15:17:53.297Z,68.50
2022-11-29T15:20:37.622Z,68.70
2022-11-29T15:23:14.079Z,69.00
2022-11-29T15:25:49.102Z,69.20
2022-11-29T15:28:24.805Z,69.40
2022-11-29T15:31:08.966Z,69.50
2022-11-29T15:33:43.997Z,69.70
2022-11-29T15:36:19.110Z,69.80
2022-11-29T15:38:53.598Z,70.00
2022-11-29T15:41:32.198Z,70.20
2022-11-29T15:44:03.881Z,70.10
2022-11-29T15:46:34.996Z,70.10
2022-11-29T15:49:22.905Z,70.20
2022-11-29T15:52:20.157Z,70.10
2022-11-29T15:54:54.574Z,70.10
2022-11-29T15:57:25.970Z,70.40
2022-11-29T16:00:01.466Z,70.50
2022-11-29T16:02:37.188Z,70.60
2022-11-29T16:05:15.032Z,70.70
2022-11-29T16:07:46.714Z,70.80
2022-11-29T16:10:36.928Z,70.90
2022-11-29T16:13:32.755Z,70.70
2022-11-29T16:16:14.265Z,70.80
2022-11-29T16:18:45.956Z,70.90
2022-11-29T16:21:29.135Z,71.20
2022-11-29T16:23:59.080Z,71.20
2022-11-29T16:26:38.382Z,71.40
2022-11-29T16:29:21.162Z,71.50
2022-11-29T16:31:51.670Z,72.40
2022-11-29T16:34:30.007Z,71.80
2022-11-29T16:37:05.190Z,72.10
2022-11-29T16:39:37.785Z,72.40
2022-11-29T16:42:26.379Z,72.60
2022-11-29T16:45:38.271Z,72.50
2022-11-29T16:48:22.476Z,72.60
2022-11-29T16:51:10.122Z,72.70
2022-11-29T16:53:47.683Z,72.80
2022-11-29T16:56:18.675Z,72.90
2022-11-29T16:59:25.582Z,73.00
2022-11-29T17:01:45.721Z,73.00
2022-11-29T17:04:23.808Z,73.10
2022-11-29T17:06:55.604Z,73.20
2022-11-29T17:09:30.767Z,73.30
2022-11-29T17:12:01.009Z,73.40
2022-11-29T17:14:31.599Z,73.50
2022-11-29T17:17:03.750Z,73.60
2022-11-29T17:19:32.979Z,73.80
2022-11-29T17:22:02.263Z,74.00
2022-11-29T17:24:31.379Z,74.10
2022-11-29T17:27:00.597Z,74.10
2022-11-29T17:29:29.786Z,74.10
2022-11-29T17:31:58.978Z,74.30
2022-11-29T17:34:28.182Z,74.20
2022-11-29T17:36:57.601Z,74.20
2022-11-29T17:39:26.722Z,74.20
2022-11-29T17:41:55.821Z,74.20
2022-11-29T17:44:24.946Z,74.30
2022-11-29T17:46:54.158Z,74.40
2022-11-29T17:49:23.275Z,74.40
2022-11-29T17:51:53.470Z,74.60
2022-11-29T17:54:23.222Z,74.70
2022-11-29T17:56:52.402Z,74.90
2022-11-29T17:59:21.552Z,75.00
2022-11-29T18:01:50.866Z,75.20
2022-11-29T18:04:20.092Z,75.30
2022-11-29T18:06:51.730Z,75.30
2022-11-29T18:09:20.928Z,75.50
2022-11-29T18:11:50.633Z,75.60
2022-11-29T18:14:28.315Z,75.80
2022-11-29T18:16:57.615Z,75.90
2022-11-29T18:19:26.829Z,76.10
2022-11-29T18:21:55.887Z,76.30
2022-11-29T18:24:27.926Z,76.20
2022-11-29T18:26:57.142Z,76.20
2022-11-29T18:29:26.332Z,76.50
2022-11-29T18:31:55.569Z,76.50
2022-11-29T18:34:24.775Z,76.40
2022-11-29T18:36:53.908Z,76.30
2022-11-29T18:39:25.030Z,76.40
2022-11-29T18:41:54.159Z,76.50
2022-11-29T18:44:29.227Z,76.40
2022-11-29T18:46:58.557Z,76.50
2022-11-29T18:49:27.748Z,76.60
2022-11-29T18:51:56.917Z,76.80
2022-11-29T18:54:26.040Z,76.80
2022-11-29T18:56:55.203Z,76.90
2022-11-29T18:59:24.325Z,77.10
2022-11-29T19:01:53.669Z,77.00
2022-11-29T19:04:22.894Z,77.20
2022-11-29T19:06:52.182Z,77.30
2022-11-29T19:09:22.239Z,77.40
2022-11-29T19:11:51.541Z,77.50
2022-11-29T19:14:20.834Z,77.60
2022-11-29T19:16:50.317Z,77.60
2022-11-29T19:19:19.453Z,77.70
2022-11-29T19:21:49.115Z,77.70
2022-11-29T19:24:18.898Z,77.80
2022-11-29T19:26:50.696Z,77.80
2022-11-29T19:29:20.466Z,78.00
2022-11-29T19:31:50.463Z,78.10
2022-11-29T19:34:19.705Z,78.10
2022-11-29T19:36:48.927Z,78.20
2022-11-29T19:39:18.273Z,78.20
2022-11-29T19:41:48.012Z,78.30
2022-11-29T19:44:17.127Z,78.30
2022-11-29T19:46:48.712Z,78.30
2022-11-29T19:49:18.041Z,78.30
2022-11-29T19:51:47.226Z,78.40
2022-11-29T19:54:16.300Z,78.40
2022-11-29T19:56:45.460Z,78.60
2022-11-29T19:59:14.660Z,78.80
2022-11-29T20:01:43.928Z,78.80
2022-11-29T20:04:13.794Z,78.80
2022-11-29T20:06:44.511Z,78.70
2022-11-29T20:09:14.193Z,78.90
2022-11-29T20:11:44.864Z,78.90
2022-11-29T20:14:14.707Z,79.00
2022-11-29T20:16:44.743Z,79.30
2022-11-29T20:19:16.400Z,79.30
2022-11-29T20:21:48.273Z,79.40
2022-11-29T20:24:19.427Z,79.50
2022-11-29T20:26:49.757Z,79.50
2022-11-29T20:29:20.004Z,79.50
2022-11-29T20:31:50.996Z,79.70
2022-11-29T20:34:21.003Z,79.70
2022-11-29T20:37:17.924Z,79.80
2022-11-29T20:39:54.624Z,79.90
2022-11-29T20:42:49.758Z,80.00
2022-11-29T20:45:19.167Z,80.00
2022-11-29T20:48:02.889Z,80.00
2022-11-29T20:50:32.778Z,80.10
2022-11-29T20:53:23.381Z,80.20
2022-11-29T20:55:52.566Z,80.30
2022-11-29T20:58:21.641Z,80.30
2022-11-29T21:00:50.772Z,80.30
2022-11-29T21:03:21.242Z,80.30
2022-11-29T21:05:51.479Z,80.30
2022-11-29T21:08:24.715Z,80.40
2022-11-29T21:10:54.663Z,80.60
2022-11-29T21:13:24.079Z,80.70
2022-11-29T21:15:53.650Z,80.80
2022-11-29T21:18:24.888Z,80.70
2022-11-29T21:21:12.624Z,80.70
2022-11-29T21:24:01.065Z,80.80
2022-11-29T21:26:41.325Z,80.60
2022-11-29T21:29:21.744Z,80.70
2022-11-29T21:31:53.305Z,80.70
2022-11-29T21:34:22.429Z,80.70
2022-11-29T21:36:57.634Z,80.60
2022-11-29T21:39:33.455Z,80.40
2022-11-29T21:42:02.987Z,80.40
2022-11-29T21:44:32.103Z,80.40
2022-11-29T21:47:01.365Z,80.50
2022-11-29T21:49:30.942Z,80.50
2022-11-29T21:52:01.194Z,80.70
2022-11-29T21:54:30.433Z,80.50
2022-11-29T21:56:59.591Z,80.30
2022-11-29T21:59:28.746Z,80.10
2022-11-29T22:01:57.944Z,80.00
2022-11-29T22:04:27.284Z,80.10
2022-11-29T22:06:56.411Z,80.00
2022-11-29T22:09:25.582Z,79.90
2022-11-29T22:11:54.718Z,79.70
2022-11-29T22:14:24.387Z,79.60
2022-11-29T22:16:58.363Z,79.60
2022-11-29T22:19:33.069Z,79.50
2022-11-29T22:22:06.977Z,79.50
2022-11-29T22:24:36.983Z,79.50
2022-11-29T22:27:06.867Z,79.40
2022-11-29T22:29:35.954Z,79.30
2022-11-29T22:32:05.293Z,79.30
2022-11-29T22:34:34.365Z,79.20
2022-11-29T22:37:03.502Z,79.30
2022-11-29T22:39:32.605Z,79.30
2022-11-29T22:42:01.675Z,79.40
2022-11-29T22:44:31.350Z,79.50
2022-11-29T22:47:00.495Z,79.60
2022-11-29T22:49:30.088Z,79.90
2022-11-29T22:51:59.259Z,80.10
2022-11-29T22:54:28.487Z,80.20
2022-11-29T22:56:57.660Z,80.20
2022-11-29T22:59:26.739Z,80.30
2022-11-29T23:01:55.958Z,80.10
2022-11-29T23:04:25.100Z,80.10
2022-11-29T23:06:54.182Z,80.10
2022-11-29T23:09:23.329Z,80.10
2022-11-29T23:11:55.919Z,80.10
2022-11-29T23:14:25.255Z,80.20
2022-11-29T23:16:54.412Z,80.20
2022-11-29T23:19:23.584Z,80.50
2022-11-29T23:21:52.773Z,80.70
2022-11-29T23:24:21.978Z,80.70
2022-11-29T23:26:51.142Z,80.80
2022-11-29T23:29:20.344Z,80.60
2022-11-29T23:31:50.412Z,80.40
2022-11-29T23:34:19.909Z,80.30
2022-11-29T23:36:52.843Z,80.00
2022-11-29T23:39:22.307Z,79.70
2022-11-29T23:41:51.400Z,80.40
2022-11-29T23:44:20.500Z,79.30
2022-11-29T23:46:49.604Z,79.10
2022-11-29T23:49:18.702Z,79.10
2022-11-29T23:51:47.846Z,79.00
2022-11-29T23:54:16.982Z,78.90
2022-11-29T23:56:46.066Z,78.90
2022-11-29T23:59:15.330Z,78.70
